Time;durP1;ratioP1;P1;durP2;ratioP2;P2;SDS_P1;SDS_P2;PMS_P1;PMS_P2;Temp;Humidity;BMP_temperature;BMP_pressure;BME280_temperature;BME280_humidity;BME280_pressure;Samples;Min_cycle;Max_cycle;Signal;HPM_P1;HPM_P2
2022/10/21 00:00:58;;;;;;;30.17;27.17;;;11.30;99.90;;;;;;4918177;29;20472;-79
2022/10/21 00:03:27;;;;;;;29.70;26.93;;;11.20;99.90;;;;;;4918048;29;20460;-79
2022/10/21 00:05:55;;;;;;;29.13;26.47;;;11.30;99.90;;;;;;4917436;29;20440;-79
2022/10/21 00:08:24;;;;;;;29.97;27.17;;;11.30;99.90;;;;;;4918067;29;20456;-79
2022/10/21 00:10:53;;;;;;;28.47;26.07;;;11.30;99.90;;;;;;4917718;29;20464;-79
2022/10/21 00:13:22;;;;;;;29.20;26.40;;;11.30;99.90;;;;;;4916754;29;20460;-79
2022/10/21 00:16:03;;;;;;;28.80;26.17;;;11.30;99.90;;;;;;4916570;29;20448;-79
2022/10/21 00:18:33;;;;;;;28.57;25.67;;;11.30;99.90;;;;;;4916428;29;20784;-79
2022/10/21 00:21:05;;;;;;;28.60;25.90;;;11.30;99.90;;;;;;4916195;29;20473;-79
2022/10/21 00:23:34;;;;;;;28.80;26.13;;;11.30;99.90;;;;;;4917677;29;20429;-79
2022/10/21 00:26:03;;;;;;;29.67;26.77;;;11.40;99.90;;;;;;4916198;29;20460;-79
2022/10/21 00:28:32;;;;;;;28.83;26.23;;;11.40;99.90;;;;;;4916328;29;20482;-79
2022/10/21 00:31:01;;;;;;;28.10;25.60;;;11.40;99.90;;;;;;4916298;29;20848;-79
2022/10/21 00:33:29;;;;;;;29.10;26.50;;;11.40;99.90;;;;;;4916124;29;20993;-79
2022/10/21 00:36:01;;;;;;;29.13;26.30;;;11.40;99.90;;;;;;4916183;29;20452;-79
2022/10/21 00:38:30;;;;;;;30.90;28.20;;;11.40;99.90;;;;;;4916367;29;20461;-79
2022/10/21 00:40:58;;;;;;;29.63;26.83;;;11.40;99.90;;;;;;4921622;29;20476;-79
2022/10/21 00:43:27;;;;;;;30.13;27.30;;;11.40;99.90;;;;;;4918235;29;20866;-79
2022/10/21 00:45:59;;;;;;;28.13;25.60;;;11.40;99.90;;;;;;4918025;29;20583;-79
2022/10/21 00:48:33;;;;;;;28.70;25.87;;;11.50;99.90;;;;;;4916337;29;20456;-79
2022/10/21 00:51:05;;;;;;;30.27;27.47;;;11.50;99.90;;;;;;4917574;29;20543;-79
2022/10/21 00:53:35;;;;;;;30.70;27.90;;;11.50;99.90;;;;;;4916054;29;20449;-79
2022/10/21 00:56:09;;;;;;;28.57;25.70;;;11.50;99.90;;;;;;4915997;29;20512;-79
2022/10/21 00:58:45;;;;;;;30.87;27.90;;;11.50;99.90;;;;;;4916003;29;20436;-79
2022/10/21 01:01:14;;;;;;;29.23;26.50;;;11.50;99.90;;;;;;4916261;29;20484;-79
2022/10/21 01:03:49;;;;;;;30.13;27.23;;;11.50;99.90;;;;;;4916118;29;20993;-79
2022/10/21 01:06:20;;;;;;;29.87;27.10;;;11.50;99.90;;;;;;4917804;29;20524;-79
2022/10/21 01:08:48;;;;;;;29.73;26.90;;;11.50;99.90;;;;;;4916106;29;20983;-79
2022/10/21 01:11:19;;;;;;;31.60;28.50;;;11.50;99.90;;;;;;4916065;29;21028;-79
2022/10/21 01:14:03;;;;;;;28.57;25.77;;;11.50;99.90;;;;;;4916509;29;20487;-79
2022/10/21 01:16:37;;;;;;;28.37;25.63;;;11.50;99.90;;;;;;4916658;29;21042;-79
2022/10/21 01:19:24;;;;;;;28.90;26.17;;;11.50;99.90;;;;;;4921993;29;20436;-80
2022/10/21 01:21:57;;;;;;;30.53;27.53;;;11.50;99.90;;;;;;4920434;29;20475;-80
2022/10/21 01:24:53;;;;;;;29.83;27.03;;;11.40;99.90;;;;;;4921033;29;20490;-79
2022/10/21 01:27:42;;;;;;;27.13;24.27;;;11.40;99.90;;;;;;4912254;29;20467;-79
2022/10/21 01:30:34;;;;;;;29.37;26.50;;;11.50;99.90;;;;;;4921440;29;20479;-79
2022/10/21 01:33:24;;;;;;;27.47;24.90;;;11.40;99.90;;;;;;4921483;29;20633;-79
2022/10/21 01:35:57;;;;;;;27.97;25.47;;;11.40;99.90;;;;;;4919766;29;20823;-79
2022/10/21 01:38:33;;;;;;;28.10;25.40;;;11.30;99.90;;;;;;4919983;29;20961;-79
2022/10/21 01:41:05;;;;;;;29.60;26.73;;;11.40;99.90;;;;;;4919368;29;21027;-79
2022/10/21 01:43:38;;;;;;;28.47;25.77;;;11.40;99.90;;;;;;4919369;29;20535;-78
2022/10/21 01:46:14;;;;;;;28.43;25.70;;;11.40;99.90;;;;;;4920191;29;20587;-79
2022/10/21 01:48:47;;;;;;;30.43;27.30;;;11.30;99.90;;;;;;4919838;29;20436;-79
2022/10/21 01:51:18;;;;;;;28.07;25.30;;;11.30;99.90;;;;;;4919741;29;20484;-79
2022/10/21 01:53:52;;;;;;;29.07;26.23;;;11.30;99.90;;;;;;4919325;29;20449;-79
2022/10/21 01:56:21;;;;;;;29.47;26.60;;;11.30;99.90;;;;;;4919431;29;20499;-79
2022/10/21 01:58:51;;;;;;;28.10;25.60;;;11.30;99.90;;;;;;4919810;29;20822;-79
2022/10/21 02:01:24;;;;;;;28.10;25.27;;;11.30;99.90;;;;;;4919444;29;20483;-79
2022/10/21 02:03:57;;;;;;;29.40;26.50;;;11.30;99.90;;;;;;4920345;29;20500;-79
2022/10/21 02:06:26;;;;;;;29.60;26.50;;;11.30;99.90;;;;;;4918994;29;20472;-79
2022/10/21 02:08:54;;;;;;;30.00;27.00;;;11.20;99.90;;;;;;4919156;29;20452;-79
2022/10/21 02:11:22;;;;;;;28.37;25.40;;;11.20;99.90;;;;;;4920306;29;20484;-79
2022/10/21 02:13:56;;;;;;;29.00;26.23;;;11.20;99.90;;;;;;4918785;29;20448;-79
2022/10/21 02:16:31;;;;;;;30.27;27.27;;;11.20;99.90;;;;;;4920189;29;20935;-79
2022/10/21 02:19:00;;;;;;;30.10;27.23;;;11.20;99.90;;;;;;4918671;29;20447;-79
2022/10/21 02:21:33;;;;;;;31.87;27.97;;;11.20;99.90;;;;;;4918786;29;20820;-79
2022/10/21 02:24:08;;;;;;;29.33;26.63;;;11.20;99.90;;;;;;4919374;29;20445;-79
2022/10/21 02:26:36;;;;;;;31.40;28.20;;;11.20;99.90;;;;;;4919345;29;20468;-79
2022/10/21 02:29:04;;;;;;;29.00;26.10;;;11.20;99.90;;;;;;4920082;29;20448;-79
2022/10/21 02:31:58;;;;;;;28.40;25.70;;;11.20;99.90;;;;;;4919310;29;20476;-79
2022/10/21 02:34:34;;;;;;;31.07;28.00;;;11.20;99.90;;;;;;4919545;29;20448;-80
2022/10/21 02:37:11;;;;;;;29.90;27.10;;;11.20;99.90;;;;;;4920949;29;20474;-80
2022/10/21 02:39:47;;;;;;;30.70;27.60;;;11.20;99.90;;;;;;4919063;29;20535;-79
2022/10/21 02:42:22;;;;;;;29.83;26.80;;;11.10;99.90;;;;;;4920486;29;20527;-79
2022/10/21 02:44:52;;;;;;;27.53;24.87;;;11.20;99.90;;;;;;4919168;29;20540;-79
2022/10/21 02:47:25;;;;;;;25.90;23.40;;;11.10;99.90;;;;;;4918611;29;20456;-79
2022/10/21 02:49:53;;;;;;;30.60;27.30;;;11.10;99.90;;;;;;4921315;29;20476;-79
2022/10/21 02:52:21;;;;;;;28.80;26.10;;;11.00;99.90;;;;;;4919552;29;20496;-79
2022/10/21 02:54:49;;;;;;;27.70;24.80;;;11.10;99.90;;;;;;4918332;29;20476;-79
2022/10/21 02:57:17;;;;;;;28.00;25.30;;;11.10;99.90;;;;;;4918924;29;20520;-79
2022/10/21 02:59:45;;;;;;;29.77;26.97;;;11.00;99.90;;;;;;4918759;29;20461;-79
2022/10/21 03:02:13;;;;;;;29.10;26.20;;;11.00;99.90;;;;;;4919656;29;20453;-80
2022/10/21 03:04:43;;;;;;;28.53;25.83;;;11.10;99.90;;;;;;4920802;29;20456;-80
2022/10/21 03:07:11;;;;;;;29.03;26.10;;;11.00;99.90;;;;;;4920987;29;20503;-80
2022/10/21 03:09:39;;;;;;;31.17;27.93;;;11.00;99.90;;;;;;4919351;29;20452;-80
2022/10/21 03:12:07;;;;;;;29.20;26.27;;;11.00;99.90;;;;;;4918553;29;20460;-79
2022/10/21 03:14:35;;;;;;;32.93;29.77;;;11.00;99.90;;;;;;4918421;29;20878;-79
2022/10/21 03:17:03;;;;;;;30.37;27.00;;;11.00;99.90;;;;;;4918309;29;20456;-79
2022/10/21 03:19:31;;;;;;;31.00;27.80;;;11.00;99.90;;;;;;4917670;29;20452;-79
2022/10/21 03:22:01;;;;;;;35.40;31.70;;;11.00;99.90;;;;;;4917572;29;20511;-79
2022/10/21 03:24:29;;;;;;;41.03;36.70;;;11.00;99.90;;;;;;4917822;29;20452;-79
2022/10/21 03:26:57;;;;;;;36.70;32.90;;;11.00;99.90;;;;;;4919480;29;20503;-79
2022/10/21 03:29:25;;;;;;;33.50;30.00;;;11.00;99.90;;;;;;4917611;29;20441;-79
2022/10/21 03:31:53;;;;;;;33.80;30.27;;;11.00;99.90;;;;;;4919246;29;20452;-79
2022/10/21 03:34:21;;;;;;;31.00;27.70;;;11.00;99.90;;;;;;4920341;29;20468;-80
2022/10/21 03:36:49;;;;;;;28.33;25.47;;;11.00;99.90;;;;;;4919987;29;20523;-80
2022/10/21 03:39:19;;;;;;;29.97;26.97;;;10.80;99.90;;;;;;4918347;29;20465;-79
2022/10/21 03:41:47;;;;;;;26.40;23.83;;;11.00;99.90;;;;;;4917672;29;20478;-79
2022/10/21 03:44:15;;;;;;;27.60;24.90;;;10.90;99.90;;;;;;4918435;29;20459;-80
2022/10/21 03:46:43;;;;;;;27.03;24.30;;;10.90;99.90;;;;;;4919765;29;20495;-80
2022/10/21 03:49:11;;;;;;;31.53;28.43;;;10.90;99.90;;;;;;4918456;29;20511;-80
2022/10/21 03:51:48;;;;;;;30.10;27.10;;;10.90;99.90;;;;;;4918183;29;21012;-79
2022/10/21 03:54:17;;;;;;;29.73;26.73;;;10.90;99.90;;;;;;4919239;29;20520;-80
2022/10/21 03:56:46;;;;;;;29.50;26.43;;;10.90;99.90;;;;;;4918340;29;20455;-80
2022/10/21 03:59:15;;;;;;;29.77;26.80;;;10.90;99.90;;;;;;4917695;29;20874;-79
2022/10/21 04:01:43;;;;;;;30.40;27.20;;;10.90;99.90;;;;;;4917314;29;20826;-79
2022/10/21 04:04:11;;;;;;;30.90;27.93;;;11.00;99.90;;;;;;4916749;29;20452;-79
2022/10/21 04:06:39;;;;;;;28.93;26.03;;;10.90;99.90;;;;;;4918427;29;20479;-79
2022/10/21 04:09:07;;;;;;;31.10;27.87;;;10.90;99.90;;;;;;4918918;29;20977;-80
2022/10/21 04:11:36;;;;;;;31.07;27.97;;;10.90;99.90;;;;;;4919950;29;20888;-80
2022/10/21 04:14:05;;;;;;;32.23;28.93;;;11.00;99.90;;;;;;4917025;29;20452;-79
2022/10/21 04:16:38;;;;;;;30.23;27.37;;;11.00;99.90;;;;;;4918113;29;20476;-79
2022/10/21 04:19:06;;;;;;;32.17;28.87;;;10.90;99.90;;;;;;4919135;29;20453;-79
2022/10/21 04:21:34;;;;;;;33.63;30.17;;;11.00;99.90;;;;;;4917825;29;20986;-79
2022/10/21 04:24:03;;;;;;;31.00;27.80;;;10.90;99.90;;;;;;4916813;29;20897;-79
2022/10/21 04:26:31;;;;;;;33.13;29.50;;;11.00;99.90;;;;;;4916554;29;21005;-79
2022/10/21 04:28:59;;;;;;;32.47;29.17;;;11.00;99.90;;;;;;4916438;29;20459;-79
2022/10/21 04:31:28;;;;;;;35.43;29.40;;;11.10;99.90;;;;;;4916235;29;20483;-79
2022/10/21 04:33:59;;;;;;;32.67;29.37;;;11.00;99.90;;;;;;4916821;29;20455;-79
2022/10/21 04:36:27;;;;;;;32.90;29.50;;;11.10;99.90;;;;;;4917548;29;20444;-79
2022/10/21 04:38:55;;;;;;;33.10;29.70;;;11.00;99.90;;;;;;4916879;29;20456;-79
2022/10/21 04:41:23;;;;;;;32.07;28.67;;;11.10;99.90;;;;;;4918620;29;20949;-79
2022/10/21 04:43:51;;;;;;;31.13;27.93;;;11.10;99.90;;;;;;4916414;29;20467;-79
2022/10/21 04:46:20;;;;;;;30.10;26.90;;;11.10;99.90;;;;;;4917793;29;20985;-79
2022/10/21 04:48:49;;;;;;;35.93;30.60;;;11.10;99.90;;;;;;4916181;29;20457;-79
2022/10/21 04:51:20;;;;;;;33.07;29.57;;;11.10;99.90;;;;;;4916457;29;20491;-79
2022/10/21 04:53:49;;;;;;;34.27;30.57;;;11.10;99.90;;;;;;4918023;29;20428;-79
2022/10/21 04:56:17;;;;;;;34.30;30.60;;;11.10;99.90;;;;;;4917468;29;20468;-79
2022/10/21 04:58:45;;;;;;;34.07;30.47;;;11.10;99.90;;;;;;4916097;29;20460;-79
2022/10/21 05:01:13;;;;;;;33.40;30.00;;;11.20;99.90;;;;;;4917524;29;20551;-79
2022/10/21 05:03:41;;;;;;;34.60;30.90;;;11.20;99.90;;;;;;4915990;29;20645;-79
2022/10/21 05:06:11;;;;;;;34.43;30.93;;;11.20;99.90;;;;;;4917322;29;20806;-79
2022/10/21 05:08:39;;;;;;;32.03;28.83;;;11.30;99.90;;;;;;4918378;29;20436;-79
2022/10/21 05:11:07;;;;;;;35.90;30.90;;;11.30;99.90;;;;;;4919458;29;20480;-80
2022/10/21 05:13:35;;;;;;;33.13;29.70;;;11.20;99.90;;;;;;4921156;29;20483;-81
2022/10/21 05:16:04;;;;;;;34.10;30.40;;;11.20;99.90;;;;;;4919188;29;20448;-81
2022/10/21 05:18:32;;;;;;;37.60;31.80;;;11.30;99.90;;;;;;4919951;29;20452;-81
2022/10/21 05:21:01;;;;;;;31.80;28.50;;;11.30;99.90;;;;;;4919546;29;20583;-81
2022/10/21 05:23:30;;;;;;;38.20;33.27;;;11.30;99.90;;;;;;4921147;29;20468;-81
2022/10/21 05:25:58;;;;;;;37.07;32.20;;;11.30;99.90;;;;;;4919675;29;20456;-81
2022/10/21 05:28:26;;;;;;;35.20;31.37;;;11.40;99.90;;;;;;4919130;29;20890;-81
2022/10/21 05:30:54;;;;;;;32.83;29.40;;;11.40;99.90;;;;;;4920584;29;20563;-81
2022/10/21 05:33:22;;;;;;;35.03;31.27;;;11.40;99.90;;;;;;4918719;29;20452;-81
2022/10/21 05:35:59;;;;;;;36.37;32.47;;;11.50;99.90;;;;;;4919294;29;20464;-81
2022/10/21 05:38:30;;;;;;;33.17;29.70;;;11.40;99.90;;;;;;4919476;29;20455;-81
2022/10/21 05:40:58;;;;;;;38.33;30.50;;;11.40;99.90;;;;;;4918351;29;20491;-80
2022/10/21 05:43:27;;;;;;;32.00;28.70;;;11.40;99.90;;;;;;4918435;29;20465;-81
2022/10/21 05:45:56;;;;;;;32.60;29.30;;;11.40;99.90;;;;;;4918204;29;20452;-81
2022/10/21 05:48:24;;;;;;;31.17;28.07;;;11.40;99.90;;;;;;4918225;29;20496;-81
2022/10/21 05:50:54;;;;;;;30.43;27.37;;;11.40;99.90;;;;;;4917724;29;20503;-81
2022/10/21 05:53:23;;;;;;;31.50;28.10;;;11.50;99.90;;;;;;4918075;29;20829;-81
2022/10/21 05:56:01;;;;;;;32.57;29.17;;;11.40;99.90;;;;;;4917590;29;20464;-81
2022/10/21 05:58:30;;;;;;;32.30;29.00;;;11.50;99.90;;;;;;4917875;29;20452;-81
2022/10/21 06:01:01;;;;;;;32.07;28.70;;;11.40;99.90;;;;;;4917410;29;20472;-81
2022/10/21 06:03:31;;;;;;;31.87;28.47;;;11.50;99.90;;;;;;4919239;29;20459;-81
2022/10/21 06:06:00;;;;;;;41.93;36.77;;;11.40;99.90;;;;;;4923098;29;20902;-81
2022/10/21 06:08:30;;;;;;;38.63;34.33;;;11.50;99.90;;;;;;4920814;29;20475;-81
2022/10/21 06:11:05;;;;;;;33.73;30.17;;;11.40;99.90;;;;;;4920496;29;20566;-81
2022/10/21 06:13:33;;;;;;;34.57;30.90;;;11.40;99.90;;;;;;4921147;29;20447;-80
2022/10/21 06:16:02;;;;;;;33.07;29.47;;;11.40;99.90;;;;;;4922294;29;20499;-81
2022/10/21 06:18:30;;;;;;;34.20;30.10;;;11.40;99.90;;;;;;4922674;29;20455;-81
2022/10/21 06:20:58;;;;;;;32.43;28.90;;;11.40;99.90;;;;;;4920963;29;20476;-81
2022/10/21 06:23:28;;;;;;;37.30;33.20;;;11.40;99.90;;;;;;4921080;29;20552;-81
2022/10/21 06:25:58;;;;;;;32.63;29.23;;;11.40;99.90;;;;;;4921002;29;20456;-81
2022/10/21 06:28:29;;;;;;;38.13;32.17;;;11.40;99.90;;;;;;4920746;29;20476;-81
2022/10/21 06:30:57;;;;;;;38.03;32.73;;;11.40;99.90;;;;;;4922077;29;20456;-80
2022/10/21 06:33:26;;;;;;;38.00;34.10;;;11.40;99.90;;;;;;4923083;29;20456;-81
2022/10/21 06:35:55;;;;;;;36.57;31.80;;;11.40;99.90;;;;;;4920460;29;20821;-81
2022/10/21 06:38:24;;;;;;;35.17;31.50;;;11.40;99.90;;;;;;4921553;29;20444;-81
2022/10/21 06:40:52;;;;;;;35.87;31.97;;;11.40;99.90;;;;;;4921479;29;20551;-81
2022/10/21 06:43:21;;;;;;;34.77;30.10;;;11.40;99.90;;;;;;4920038;29;20958;-80
2022/10/21 06:45:50;;;;;;;34.70;30.27;;;11.40;99.90;;;;;;4920230;29;21037;-81
2022/10/21 06:48:18;;;;;;;32.97;29.50;;;11.40;99.90;;;;;;4920005;29;20480;-81
2022/10/21 06:50:46;;;;;;;33.40;28.50;;;11.40;99.90;;;;;;4920077;29;20475;-81
2022/10/21 06:53:14;;;;;;;35.13;31.53;;;11.40;99.90;;;;;;4920539;29;20499;-81
2022/10/21 06:55:42;;;;;;;32.27;28.80;;;11.40;99.90;;;;;;4919842;29;20527;-81
2022/10/21 06:58:10;;;;;;;34.90;30.40;;;11.40;99.90;;;;;;4921140;29;20445;-81
2022/10/21 07:00:38;;;;;;;34.50;29.10;;;11.40;99.90;;;;;;4921208;29;20500;-81
2022/10/21 07:03:08;;;;;;;39.87;31.50;;;11.40;99.90;;;;;;4921185;29;20461;-80
2022/10/21 07:05:36;;;;;;;33.77;30.30;;;11.40;99.90;;;;;;4920070;29;20448;-80
2022/10/21 07:08:04;;;;;;;36.20;31.07;;;11.40;99.90;;;;;;4920172;29;20484;-80
2022/10/21 07:10:33;;;;;;;38.30;31.83;;;11.40;99.90;;;;;;4919656;29;20476;-79
2022/10/21 07:13:01;;;;;;;33.33;29.90;;;11.40;99.90;;;;;;4919750;29;20452;-80
2022/10/21 07:15:29;;;;;;;36.63;32.13;;;11.40;99.90;;;;;;4921209;29;20447;-80
2022/10/21 07:17:59;;;;;;;36.80;33.00;;;11.40;99.90;;;;;;4919580;29;21029;-81
2022/10/21 07:20:29;;;;;;;36.63;32.80;;;11.50;99.90;;;;;;4919832;29;20884;-78
2022/10/21 07:22:57;;;;;;;36.33;32.47;;;11.50;99.90;;;;;;4918810;29;20456;-79
2022/10/21 07:25:25;;;;;;;37.57;33.57;;;11.40;99.90;;;;;;4918296;29;20452;-79
2022/10/21 07:27:53;;;;;;;36.10;32.30;;;11.50;99.90;;;;;;4918128;29;20480;-78
2022/10/21 07:30:22;;;;;;;38.60;33.57;;;11.50;99.90;;;;;;4917849;29;20472;-77
2022/10/21 07:32:51;;;;;;;38.20;32.33;;;11.50;99.90;;;;;;4919880;29;20543;-79
2022/10/21 07:35:19;;;;;;;36.73;32.73;;;11.60;99.90;;;;;;4918076;29;20448;-78
2022/10/21 07:37:48;;;;;;;40.80;34.03;;;11.60;99.90;;;;;;4919356;29;20448;-79
2022/10/21 07:40:16;;;;;;;41.23;34.83;;;11.60;99.90;;;;;;4918083;29;20472;-79
2022/10/21 07:42:46;;;;;;;33.30;28.83;;;11.60;99.90;;;;;;4918142;29;20827;-77
2022/10/21 07:45:15;;;;;;;37.90;33.80;;;11.60;99.90;;;;;;4917462;29;20528;-78
2022/10/21 07:47:43;;;;;;;45.03;34.80;;;11.70;99.90;;;;;;4917662;29;20556;-78
2022/10/21 07:50:11;;;;;;;42.20;35.73;;;11.70;99.90;;;;;;4917771;29;20483;-78
2022/10/21 07:52:44;;;;;;;37.63;32.10;;;11.80;99.90;;;;;;4921029;29;20464;-77
2022/10/21 07:55:29;;;;;;;36.27;32.57;;;11.90;99.90;;;;;;4920950;29;20460;-78
2022/10/21 07:57:58;;;;;;;38.23;33.37;;;12.00;99.90;;;;;;4920580;29;20433;-78
2022/10/21 08:00:26;;;;;;;38.47;34.40;;;12.00;99.90;;;;;;4917733;29;20473;-79
2022/10/21 08:02:55;;;;;;;38.20;32.57;;;12.10;99.90;;;;;;4917424;29;20467;-79
2022/10/21 08:05:23;;;;;;;42.63;34.47;;;12.10;99.90;;;;;;4918118;29;20448;-78
2022/10/21 08:07:52;;;;;;;35.00;31.27;;;12.20;99.90;;;;;;4917211;29;20522;-77
2022/10/21 08:10:20;;;;;;;37.87;33.80;;;12.20;99.90;;;;;;4916946;29;20523;-78
2022/10/21 08:12:49;;;;;;;35.20;31.10;;;12.30;99.90;;;;;;4917357;29;20460;-78
2022/10/21 08:15:17;;;;;;;38.43;33.63;;;12.40;99.90;;;;;;4917670;29;20456;-80
2022/10/21 08:17:46;;;;;;;36.63;31.93;;;12.40;99.90;;;;;;4918487;29;20554;-78
2022/10/21 08:20:14;;;;;;;36.23;32.17;;;12.50;99.90;;;;;;4916650;29;20468;-78
2022/10/21 08:22:42;;;;;;;39.10;33.67;;;12.50;99.90;;;;;;4918139;29;20847;-78
2022/10/21 08:25:15;;;;;;;39.67;33.90;;;12.60;99.90;;;;;;4917285;29;20829;-77
2022/10/21 08:27:43;;;;;;;38.70;34.50;;;12.70;99.90;;;;;;4916403;29;20455;-80
2022/10/21 08:30:14;;;;;;;36.43;32.60;;;12.60;99.90;;;;;;4919756;29;20467;-80
2022/10/21 08:32:42;;;;;;;35.77;31.77;;;12.70;99.90;;;;;;4917878;29;20456;-79
2022/10/21 08:35:11;;;;;;;34.93;31.13;;;12.80;99.90;;;;;;4920080;29;20441;-80
2022/10/21 08:37:39;;;;;;;38.03;31.80;;;12.80;99.90;;;;;;4920462;29;20453;-80
2022/10/21 08:40:10;;;;;;;37.77;31.13;;;12.80;99.90;;;;;;4921482;29;20448;-80
2022/10/21 08:42:41;;;;;;;34.93;30.43;;;12.90;99.90;;;;;;4921637;29;20543;-79
2022/10/21 08:45:19;;;;;;;36.33;32.00;;;12.90;99.90;;;;;;4919546;29;20425;-78
2022/10/21 08:47:53;;;;;;;32.70;29.20;;;12.90;99.90;;;;;;4917202;29;20448;-78
2022/10/21 08:50:24;;;;;;;33.00;28.70;;;12.90;99.90;;;;;;4918777;29;20845;-78
2022/10/21 08:52:57;;;;;;;34.20;30.20;;;12.90;99.90;;;;;;4916550;29;20440;-78
2022/10/21 08:55:32;;;;;;;34.80;31.00;;;13.00;99.90;;;;;;4917096;29;20499;-77
2022/10/21 08:58:01;;;;;;;35.13;31.40;;;13.00;99.90;;;;;;4917762;29;20906;-78
2022/10/21 09:00:36;;;;;;;34.23;29.60;;;13.00;99.90;;;;;;4918057;29;20464;-78
2022/10/21 09:03:17;;;;;;;35.40;31.43;;;13.00;99.90;;;;;;4916547;29;20443;-78
2022/10/21 09:06:17;;;;;;;35.80;30.70;;;13.10;99.90;;;;;;4917675;29;20504;-78
2022/10/21 09:09:01;;;;;;;35.80;31.93;;;13.20;99.90;;;;;;4917981;29;20475;-78
2022/10/21 09:11:46;;;;;;;33.37;29.57;;;13.30;99.90;;;;;;4916471;29;20570;-77
2022/10/21 09:14:49;;;;;;;33.33;29.83;;;13.40;99.90;;;;;;4917819;29;20849;-78
2022/10/21 09:17:51;;;;;;;33.80;30.20;;;13.40;99.90;;;;;;4910285;29;20460;-78
2022/10/21 09:20:32;;;;;;;32.10;27.93;;;13.50;99.90;;;;;;4912833;29;20475;-77
2022/10/21 09:23:10;;;;;;;30.33;27.20;;;13.70;99.90;;;;;;4916300;29;20459;-77
2022/10/21 09:25:46;;;;;;;33.17;29.60;;;13.80;99.90;;;;;;4916543;29;20440;-78
2022/10/21 09:28:16;;;;;;;30.53;26.93;;;13.90;99.90;;;;;;4917420;29;20429;-77
2022/10/21 09:30:45;;;;;;;29.10;26.10;;;13.90;99.90;;;;;;4917687;29;20468;-78
2022/10/21 09:33:19;;;;;;;30.50;26.90;;;14.00;99.90;;;;;;4917567;29;20448;-78
2022/10/21 09:35:50;;;;;;;31.00;27.77;;;14.10;99.90;;;;;;4916194;29;20448;-78
2022/10/21 09:38:24;;;;;;;29.43;26.33;;;14.20;99.90;;;;;;4920653;29;20435;-79
2022/10/21 09:41:01;;;;;;;28.13;25.23;;;14.30;99.90;;;;;;4921266;29;21006;-79
2022/10/21 09:43:30;;;;;;;27.50;24.57;;;14.40;99.90;;;;;;4920925;29;20456;-79
2022/10/21 09:45:58;;;;;;;27.13;24.43;;;14.50;99.90;;;;;;4920456;29;20460;-79
2022/10/21 09:48:31;;;;;;;28.20;25.47;;;14.50;99.90;;;;;;4920428;29;20460;-79
2022/10/21 09:51:24;;;;;;;30.60;24.50;;;14.60;99.90;;;;;;4921627;29;20838;-79
2022/10/21 09:53:55;;;;;;;25.17;22.70;;;14.70;99.90;;;;;;4919377;29;20443;-78
2022/10/21 09:56:29;;;;;;;23.87;21.57;;;14.80;99.90;;;;;;4920812;29;20452;-78
2022/10/21 09:59:05;;;;;;;24.03;21.30;;;14.90;99.90;;;;;;4919375;29;20440;-77
2022/10/21 10:01:36;;;;;;;20.80;18.70;;;14.90;99.90;;;;;;4919275;29;20467;-79
2022/10/21 10:04:13;;;;;;;21.83;19.63;;;15.00;99.90;;;;;;4919336;29;20440;-79
2022/10/21 10:06:43;;;;;;;20.40;18.30;;;15.10;99.90;;;;;;4920818;29;20791;-79
2022/10/21 10:09:17;;;;;;;20.53;18.50;;;15.10;99.90;;;;;;4921137;29;20465;-79
2022/10/21 10:11:52;;;;;;;19.30;17.50;;;15.20;99.90;;;;;;4919604;29;20567;-79
2022/10/21 10:14:30;;;;;;;19.27;16.63;;;15.30;99.90;;;;;;4920295;29;20464;-79
2022/10/21 10:17:24;;;;;;;18.03;16.23;;;15.40;99.90;;;;;;4920346;29;20962;-79
2022/10/21 10:20:22;;;;;;;17.23;15.50;;;15.40;99.90;;;;;;4918365;29;20476;-79
2022/10/21 10:23:18;;;;;;;14.77;13.30;;;15.60;99.90;;;;;;4883219;29;20464;-78
2022/10/21 10:25:51;;;;;;;14.77;13.27;;;15.60;99.90;;;;;;4917448;29;20460;-78
2022/10/21 10:28:23;;;;;;;19.13;14.33;;;15.70;99.90;;;;;;4919984;29;20845;-78
2022/10/21 10:30:55;;;;;;;12.67;11.47;;;15.80;99.90;;;;;;4919348;29;20483;-78
2022/10/21 10:33:27;;;;;;;13.57;12.27;;;15.90;99.90;;;;;;4918386;29;20449;-78
2022/10/21 10:35:58;;;;;;;12.97;11.77;;;16.00;99.90;;;;;;4918161;29;20449;-78
2022/10/21 10:38:29;;;;;;;12.73;11.07;;;16.00;99.90;;;;;;4918176;29;20507;-78
2022/10/21 10:41:06;;;;;;;11.30;10.20;;;16.10;99.90;;;;;;4919204;29;20464;-78
2022/10/21 10:43:37;;;;;;;11.70;10.60;;;16.10;99.90;;;;;;4919797;29;20427;-77
2022/10/21 10:46:09;;;;;;;11.10;10.00;;;16.20;99.90;;;;;;4918209;29;21001;-78
2022/10/21 10:48:42;;;;;;;11.93;10.63;;;16.20;99.90;;;;;;4917975;29;20867;-78
2022/10/21 10:51:24;;;;;;;12.20;10.90;;;16.30;99.90;;;;;;4917649;29;20524;-78
2022/10/21 10:54:01;;;;;;;13.27;10.27;;;16.40;99.90;;;;;;4917864;29;20450;-78
2022/10/21 10:56:33;;;;;;;12.90;11.00;;;16.40;99.90;;;;;;4918963;29;20953;-78
2022/10/21 10:59:10;;;;;;;11.03;9.67;;;16.50;99.90;;;;;;4919319;29;20495;-78
2022/10/21 11:01:44;;;;;;;10.00;9.10;;;16.50;99.90;;;;;;4920191;29;20450;-78
2022/10/21 11:04:19;;;;;;;10.67;9.67;;;16.60;99.90;;;;;;4921489;29;20451;-77
2022/10/21 11:06:52;;;;;;;11.10;9.17;;;16.60;99.90;;;;;;4920244;29;20929;-77
2022/10/21 11:09:20;;;;;;;10.53;9.50;;;16.70;99.90;;;;;;4919059;29;20406;-77
2022/10/21 11:11:55;;;;;;;9.37;8.40;;;16.80;99.90;;;;;;4918971;29;21009;-77
2022/10/21 11:14:23;;;;;;;11.07;9.03;;;16.80;99.90;;;;;;4919135;29;20897;-78
2022/10/21 11:16:59;;;;;;;10.17;8.73;;;16.90;99.90;;;;;;4917501;29;20427;-78
2022/10/21 11:19:40;;;;;;;8.37;7.57;;;16.90;99.90;;;;;;4917548;29;20427;-78
2022/10/21 11:22:13;;;;;;;9.57;8.57;;;17.00;99.90;;;;;;4918857;29;20395;-78
2022/10/21 11:24:54;;;;;;;10.07;8.40;;;17.00;99.90;;;;;;4917692;29;20865;-78
2022/10/21 11:27:35;;;;;;;9.33;8.43;;;17.00;99.90;;;;;;4917227;29;20415;-78
2022/10/21 11:30:09;;;;;;;8.60;7.70;;;17.00;99.90;;;;;;4918354;29;20450;-78
2022/10/21 11:32:52;;;;;;;8.97;8.07;;;17.00;99.90;;;;;;4917168;29;20432;-78
2022/10/21 11:35:37;;;;;;;9.57;7.80;;;17.00;99.90;;;;;;4917162;29;20470;-79
2022/10/21 11:38:29;;;;;;;9.73;8.70;;;17.10;99.90;;;;;;4917005;29;20923;-78
2022/10/21 11:41:07;;;;;;;8.47;7.67;;;17.10;99.90;;;;;;4918172;29;20465;-78
2022/10/21 11:43:45;;;;;;;10.50;8.70;;;17.10;99.90;;;;;;4917010;29;20419;-79
2022/10/21 11:46:20;;;;;;;8.53;7.73;;;17.20;99.90;;;;;;4918428;29;20403;-79
2022/10/21 11:49:05;;;;;;;8.47;7.47;;;17.20;99.90;;;;;;4918421;29;20869;-79
2022/10/21 11:51:43;;;;;;;13.50;8.67;;;17.20;99.90;;;;;;4918228;29;20470;-78
2022/10/21 11:54:36;;;;;;;10.13;7.80;;;17.20;99.90;;;;;;4916787;29;20415;-78
2022/10/21 11:57:19;;;;;;;8.83;7.83;;;17.20;99.90;;;;;;4908238;29;20448;-78
2022/10/21 12:00:12;;;;;;;10.00;8.97;;;17.30;99.90;;;;;;4918153;29;20494;-79
2022/10/21 12:02:45;;;;;;;10.27;9.17;;;17.30;99.90;;;;;;4915949;29;20759;-78
2022/10/21 12:05:25;;;;;;;10.03;9.00;;;17.30;99.90;;;;;;4916684;29;20441;-78
2022/10/21 12:08:11;;;;;;;7.93;7.13;;;17.30;99.90;;;;;;4917831;29;20452;-78
2022/10/21 12:10:45;;;;;;;10.20;8.67;;;17.40;99.90;;;;;;4916373;29;20450;-78
2022/10/21 12:13:19;;;;;;;9.87;8.60;;;17.40;99.90;;;;;;4916491;29;20415;-78
2022/10/21 12:15:50;;;;;;;9.70;8.60;;;17.30;99.90;;;;;;4918356;29;20429;-78
2022/10/21 12:18:21;;;;;;;10.53;7.97;;;17.30;99.90;;;;;;4917951;29;20436;-78
2022/10/21 12:20:52;;;;;;;8.80;7.90;;;17.30;99.90;;;;;;4917619;29;20464;-78
2022/10/21 12:23:25;;;;;;;9.57;7.83;;;17.30;99.90;;;;;;4916288;29;20430;-78
2022/10/21 12:26:03;;;;;;;7.80;7.10;;;17.30;99.90;;;;;;4917790;29;20437;-78
2022/10/21 12:28:37;;;;;;;9.00;8.10;;;17.30;99.90;;;;;;4916273;29;20419;-78
2022/10/21 12:31:22;;;;;;;9.30;7.43;;;17.30;99.90;;;;;;4916095;29;20479;-78
2022/10/21 12:33:51;;;;;;;9.23;8.33;;;17.40;99.90;;;;;;4917714;29;20542;-78
2022/10/21 12:36:35;;;;;;;8.87;6.90;;;17.40;99.90;;;;;;4917573;29;20459;-78
2022/10/21 12:39:08;;;;;;;9.10;7.20;;;17.50;99.90;;;;;;4916919;29;20426;-78
2022/10/21 12:41:37;;;;;;;8.77;7.80;;;17.50;99.90;;;;;;4916109;29;20451;-78
2022/10/21 12:44:23;;;;;;;8.70;7.10;;;17.60;99.90;;;;;;4916155;29;20426;-78
2022/10/21 12:46:54;;;;;;;8.47;7.67;;;17.60;99.90;;;;;;4917485;29;20428;-78
2022/10/21 12:49:26;;;;;;;9.73;8.60;;;17.70;99.90;;;;;;4916126;29;20444;-77
2022/10/21 12:52:04;;;;;;;9.03;7.47;;;17.70;99.90;;;;;;4917383;29;20814;-78
2022/10/21 12:54:42;;;;;;;9.70;7.70;;;17.80;99.90;;;;;;4917690;29;20835;-78